sensor_id;sensor_type;location;lat;lon;timestamp;temperature;humidity
11577;DHT22;5844;51.496;6.788;2023-04-03T00:02:17;1.70;99.90
11577;DHT22;5844;51.496;6.788;2023-04-03T00:04:43;1.90;99.90
11577;DHT22;5844;51.496;6.788;2023-04-03T00:07:10;1.70;99.90
11577;DHT22;5844;51.496;6.788;2023-04-03T00:09:35;1.70;99.90
11577;DHT22;5844;51.496;6.788;2023-04-03T00:12:01;1.60;99.90
11577;DHT22;5844;51.496;6.788;2023-04-03T00:14:27;1.60;99.90
11577;DHT22;5844;51.496;6.788;2023-04-03T00:16:53;1.60;99.90
11577;DHT22;5844;51.496;6.788;2023-04-03T00:19:18;1.60;99.90
11577;DHT22;5844;51.496;6.788;2023-04-03T00:21:44;1.60;99.90
11577;DHT22;5844;51.496;6.788;2023-04-03T00:24:10;1.50;99.90
11577;DHT22;5844;51.496;6.788;2023-04-03T00:26:36;1.50;99.90
11577;DHT22;5844;51.496;6.788;2023-04-03T00:29:02;2.00;99.90
11577;DHT22;5844;51.496;6.788;2023-04-03T00:31:27;1.40;99.90
11577;DHT22;5844;51.496;6.788;2023-04-03T00:33:53;1.40;99.90
11577;DHT22;5844;51.496;6.788;2023-04-03T00:36:20;1.40;99.90
11577;DHT22;5844;51.496;6.788;2023-04-03T00:38:45;2.30;99.90
11577;DHT22;5844;51.496;6.788;2023-04-03T00:41:11;2.80;99.90
11577;DHT22;5844;51.496;6.788;2023-04-03T00:43:37;1.30;99.90
11577;DHT22;5844;51.496;6.788;2023-04-03T00:46:03;1.70;99.90
11577;DHT22;5844;51.496;6.788;2023-04-03T00:48:41;1.90;99.90
11577;DHT22;5844;51.496;6.788;2023-04-03T00:51:13;1.20;99.90
11577;DHT22;5844;51.496;6.788;2023-04-03T00:53:55;2.60;99.90
11577;DHT22;5844;51.496;6.788;2023-04-03T00:56:25;1.10;99.90
11577;DHT22;5844;51.496;6.788;2023-04-03T00:59:00;1.10;99.90
11577;DHT22;5844;51.496;6.788;2023-04-03T01:01:28;1.10;99.90
11577;DHT22;5844;51.496;6.788;2023-04-03T01:03:54;1.10;99.90
11577;DHT22;5844;51.496;6.788;2023-04-03T01:06:32;1.10;99.90
11577;DHT22;5844;51.496;6.788;2023-04-03T01:08:59;2.10;99.90
11577;DHT22;5844;51.496;6.788;2023-04-03T01:11:25;1.00;99.90
11577;DHT22;5844;51.496;6.788;2023-04-03T01:13:51;1.00;99.90
11577;DHT22;5844;51.496;6.788;2023-04-03T01:16:17;1.00;99.90
11577;DHT22;5844;51.496;6.788;2023-04-03T01:18:43;1.00;99.90
11577;DHT22;5844;51.496;6.788;2023-04-03T01:26:22;1.00;99.90
11577;DHT22;5844;51.496;6.788;2023-04-03T01:28:48;1.00;99.90
11577;DHT22;5844;51.496;6.788;2023-04-03T01:34:00;1.00;99.90
11577;DHT22;5844;51.496;6.788;2023-04-03T01:36:28;1.00;99.90
11577;DHT22;5844;51.496;6.788;2023-04-03T01:38:55;1.10;99.90
11577;DHT22;5844;51.496;6.788;2023-04-03T01:41:21;1.10;99.90
11577;DHT22;5844;51.496;6.788;2023-04-03T01:43:48;1.10;99.90
11577;DHT22;5844;51.496;6.788;2023-04-03T01:46:17;1.70;99.90
11577;DHT22;5844;51.496;6.788;2023-04-03T01:48:43;1.10;99.90
11577;DHT22;5844;51.496;6.788;2023-04-03T01:51:08;1.10;99.90
11577;DHT22;5844;51.496;6.788;2023-04-03T01:53:34;1.10;99.90
11577;DHT22;5844;51.496;6.788;2023-04-03T01:56:00;2.00;99.90
11577;DHT22;5844;51.496;6.788;2023-04-03T01:58:25;1.80;99.90
11577;DHT22;5844;51.496;6.788;2023-04-03T02:00:52;1.10;99.90
11577;DHT22;5844;51.496;6.788;2023-04-03T02:03:17;1.20;99.90
11577;DHT22;5844;51.496;6.788;2023-04-03T02:05:44;1.90;99.90
11577;DHT22;5844;51.496;6.788;2023-04-03T02:08:09;1.20;99.90
11577;DHT22;5844;51.496;6.788;2023-04-03T02:10:35;1.20;99.90
11577;DHT22;5844;51.496;6.788;2023-04-03T02:13:01;1.20;99.90
11577;DHT22;5844;51.496;6.788;2023-04-03T02:15:26;1.20;99.90
11577;DHT22;5844;51.496;6.788;2023-04-03T02:17:52;1.20;99.90
11577;DHT22;5844;51.496;6.788;2023-04-03T02:20:18;2.40;99.90
11577;DHT22;5844;51.496;6.788;2023-04-03T02:22:43;1.30;99.90
11577;DHT22;5844;51.496;6.788;2023-04-03T02:25:09;1.30;99.90
11577;DHT22;5844;51.496;6.788;2023-04-03T02:27:36;1.30;99.90
11577;DHT22;5844;51.496;6.788;2023-04-03T02:30:02;1.30;99.90
11577;DHT22;5844;51.496;6.788;2023-04-03T02:32:28;1.40;99.90
11577;DHT22;5844;51.496;6.788;2023-04-03T02:34:54;1.40;99.90
11577;DHT22;5844;51.496;6.788;2023-04-03T02:37:20;1.40;99.90
11577;DHT22;5844;51.496;6.788;2023-04-03T02:39:46;1.40;99.90
11577;DHT22;5844;51.496;6.788;2023-04-03T02:42:12;1.30;99.90
11577;DHT22;5844;51.496;6.788;2023-04-03T02:44:37;1.40;99.90
11577;DHT22;5844;51.496;6.788;2023-04-03T02:47:04;1.40;99.90
11577;DHT22;5844;51.496;6.788;2023-04-03T02:49:30;1.40;99.90
11577;DHT22;5844;51.496;6.788;2023-04-03T02:51:56;2.20;99.90
11577;DHT22;5844;51.496;6.788;2023-04-03T02:54:22;1.40;99.90
11577;DHT22;5844;51.496;6.788;2023-04-03T02:56:48;1.40;99.90
11577;DHT22;5844;51.496;6.788;2023-04-03T02:59:14;1.50;99.90
11577;DHT22;5844;51.496;6.788;2023-04-03T03:01:40;1.50;99.90
11577;DHT22;5844;51.496;6.788;2023-04-03T03:04:06;1.50;99.90
11577;DHT22;5844;51.496;6.788;2023-04-03T03:06:31;1.50;99.90
11577;DHT22;5844;51.496;6.788;2023-04-03T03:08:57;2.30;99.90
11577;DHT22;5844;51.496;6.788;2023-04-03T03:11:23;1.40;99.90
11577;DHT22;5844;51.496;6.788;2023-04-03T03:13:48;1.40;99.90
11577;DHT22;5844;51.496;6.788;2023-04-03T03:16:14;1.30;99.90
11577;DHT22;5844;51.496;6.788;2023-04-03T03:18:40;1.30;99.90
11577;DHT22;5844;51.496;6.788;2023-04-03T03:21:06;1.30;99.90
11577;DHT22;5844;51.496;6.788;2023-04-03T03:23:32;1.30;99.90
11577;DHT22;5844;51.496;6.788;2023-04-03T03:26:00;1.30;99.90
11577;DHT22;5844;51.496;6.788;2023-04-03T03:28:26;1.40;99.90
11577;DHT22;5844;51.496;6.788;2023-04-03T03:30:52;1.50;99.90
11577;DHT22;5844;51.496;6.788;2023-04-03T03:33:18;1.50;99.90
11577;DHT22;5844;51.496;6.788;2023-04-03T03:35:44;1.60;99.90
11577;DHT22;5844;51.496;6.788;2023-04-03T03:38:11;1.60;99.90
11577;DHT22;5844;51.496;6.788;2023-04-03T03:40:37;1.70;99.90
11577;DHT22;5844;51.496;6.788;2023-04-03T03:43:03;2.90;99.90
11577;DHT22;5844;51.496;6.788;2023-04-03T03:45:28;1.80;99.90
11577;DHT22;5844;51.496;6.788;2023-04-03T03:47:54;2.70;99.90
11577;DHT22;5844;51.496;6.788;2023-04-03T03:50:20;1.80;99.90
11577;DHT22;5844;51.496;6.788;2023-04-03T03:52:46;1.90;99.90
11577;DHT22;5844;51.496;6.788;2023-04-03T03:55:12;2.70;99.90
11577;DHT22;5844;51.496;6.788;2023-04-03T03:57:38;1.80;99.90
11577;DHT22;5844;51.496;6.788;2023-04-03T04:00:04;1.90;99.90
11577;DHT22;5844;51.496;6.788;2023-04-03T04:02:30;1.80;99.90
11577;DHT22;5844;51.496;6.788;2023-04-03T04:04:56;2.50;99.90
11577;DHT22;5844;51.496;6.788;2023-04-03T04:07:21;2.70;99.90
11577;DHT22;5844;51.496;6.788;2023-04-03T04:09:47;3.10;99.90
11577;DHT22;5844;51.496;6.788;2023-04-03T04:12:13;1.70;99.90
11577;DHT22;5844;51.496;6.788;2023-04-03T04:14:38;1.60;99.90
11577;DHT22;5844;51.496;6.788;2023-04-03T04:17:04;1.60;99.90
11577;DHT22;5844;51.496;6.788;2023-04-03T04:19:29;2.30;99.90
11577;DHT22;5844;51.496;6.788;2023-04-03T04:21:55;2.20;99.90
11577;DHT22;5844;51.496;6.788;2023-04-03T04:24:21;1.60;99.90
11577;DHT22;5844;51.496;6.788;2023-04-03T04:26:48;2.40;99.90
11577;DHT22;5844;51.496;6.788;2023-04-03T04:29:14;2.50;99.90
11577;DHT22;5844;51.496;6.788;2023-04-03T04:31:40;1.40;99.90
11577;DHT22;5844;51.496;6.788;2023-04-03T04:34:05;1.40;99.90
11577;DHT22;5844;51.496;6.788;2023-04-03T04:36:31;1.50;99.90
11577;DHT22;5844;51.496;6.788;2023-04-03T04:38:57;1.50;99.90
11577;DHT22;5844;51.496;6.788;2023-04-03T04:41:23;1.50;99.90
11577;DHT22;5844;51.496;6.788;2023-04-03T04:43:50;1.40;99.90
11577;DHT22;5844;51.496;6.788;2023-04-03T04:46:16;1.40;99.90
11577;DHT22;5844;51.496;6.788;2023-04-03T04:48:41;1.40;99.90
11577;DHT22;5844;51.496;6.788;2023-04-03T04:51:07;1.30;99.90
11577;DHT22;5844;51.496;6.788;2023-04-03T04:53:33;1.40;99.90
11577;DHT22;5844;51.496;6.788;2023-04-03T04:55:59;0.10;99.90
11577;DHT22;5844;51.496;6.788;2023-04-03T04:58:24;1.40;99.90
11577;DHT22;5844;51.496;6.788;2023-04-03T05:03:26;1.30;99.90
11577;DHT22;5844;51.496;6.788;2023-04-03T05:05:52;1.30;99.90
11577;DHT22;5844;51.496;6.788;2023-04-03T05:08:17;3.00;99.90
11577;DHT22;5844;51.496;6.788;2023-04-03T05:10:45;1.20;99.90
11577;DHT22;5844;51.496;6.788;2023-04-03T05:13:11;1.20;99.90
11577;DHT22;5844;51.496;6.788;2023-04-03T05:15:37;1.20;99.90
11577;DHT22;5844;51.496;6.788;2023-04-03T05:18:03;1.30;99.90
11577;DHT22;5844;51.496;6.788;2023-04-03T05:20:30;2.00;99.90
11577;DHT22;5844;51.496;6.788;2023-04-03T05:22:56;1.40;99.90
11577;DHT22;5844;51.496;6.788;2023-04-03T05:25:21;1.30;99.90
11577;DHT22;5844;51.496;6.788;2023-04-03T05:27:47;1.40;99.90
11577;DHT22;5844;51.496;6.788;2023-04-03T05:30:13;1.40;99.90
11577;DHT22;5844;51.496;6.788;2023-04-03T05:32:39;1.40;99.90
11577;DHT22;5844;51.496;6.788;2023-04-03T05:35:05;1.40;99.90
11577;DHT22;5844;51.496;6.788;2023-04-03T05:37:33;1.40;99.90
11577;DHT22;5844;51.496;6.788;2023-04-03T05:39:59;1.70;99.90
11577;DHT22;5844;51.496;6.788;2023-04-03T05:42:24;1.50;99.90
11577;DHT22;5844;51.496;6.788;2023-04-03T05:44:50;1.60;99.90
11577;DHT22;5844;51.496;6.788;2023-04-03T05:47:16;1.70;99.90
11577;DHT22;5844;51.496;6.788;2023-04-03T05:49:42;1.70;99.90
11577;DHT22;5844;51.496;6.788;2023-04-03T05:52:30;1.70;99.90
11577;DHT22;5844;51.496;6.788;2023-04-03T05:54:56;1.70;99.90
11577;DHT22;5844;51.496;6.788;2023-04-03T05:57:22;1.80;99.90
11577;DHT22;5844;51.496;6.788;2023-04-03T05:59:48;3.00;99.90
11577;DHT22;5844;51.496;6.788;2023-04-03T06:02:17;2.90;99.90
11577;DHT22;5844;51.496;6.788;2023-04-03T06:04:44;1.90;99.90
11577;DHT22;5844;51.496;6.788;2023-04-03T06:07:21;2.00;99.90
11577;DHT22;5844;51.496;6.788;2023-04-03T06:09:51;2.00;99.90
11577;DHT22;5844;51.496;6.788;2023-04-03T06:12:17;2.00;99.90
11577;DHT22;5844;51.496;6.788;2023-04-03T06:14:43;2.10;99.90
11577;DHT22;5844;51.496;6.788;2023-04-03T06:17:09;2.20;99.90
11577;DHT22;5844;51.496;6.788;2023-04-03T06:19:36;3.40;99.90
11577;DHT22;5844;51.496;6.788;2023-04-03T06:22:01;3.10;99.90
11577;DHT22;5844;51.496;6.788;2023-04-03T06:24:28;2.40;99.90
11577;DHT22;5844;51.496;6.788;2023-04-03T06:26:54;2.40;99.90
11577;DHT22;5844;51.496;6.788;2023-04-03T06:29:20;2.50;99.90
11577;DHT22;5844;51.496;6.788;2023-04-03T06:31:46;2.50;99.90
11577;DHT22;5844;51.496;6.788;2023-04-03T06:34:12;2.50;99.90
11577;DHT22;5844;51.496;6.788;2023-04-03T06:36:39;2.50;99.90
11577;DHT22;5844;51.496;6.788;2023-04-03T06:39:05;3.70;99.90
11577;DHT22;5844;51.496;6.788;2023-04-03T06:41:32;2.70;99.90
11577;DHT22;5844;51.496;6.788;2023-04-03T06:43:58;2.70;99.90
11577;DHT22;5844;51.496;6.788;2023-04-03T06:46:25;2.70;99.90
11577;DHT22;5844;51.496;6.788;2023-04-03T06:48:51;3.90;99.90
11577;DHT22;5844;51.496;6.788;2023-04-03T06:51:23;2.80;99.90
11577;DHT22;5844;51.496;6.788;2023-04-03T06:53:50;2.90;99.90
11577;DHT22;5844;51.496;6.788;2023-04-03T06:56:16;3.10;99.90
11577;DHT22;5844;51.496;6.788;2023-04-03T06:58:44;3.60;99.90
11577;DHT22;5844;51.496;6.788;2023-04-03T07:01:13;3.00;99.90
11577;DHT22;5844;51.496;6.788;2023-04-03T07:03:40;3.10;99.90
11577;DHT22;5844;51.496;6.788;2023-04-03T07:06:07;3.20;99.90
11577;DHT22;5844;51.496;6.788;2023-04-03T07:08:33;3.20;1.00
11577;DHT22;5844;51.496;6.788;2023-04-03T07:11:00;3.20;99.90
11577;DHT22;5844;51.496;6.788;2023-04-03T07:13:26;4.10;99.90
11577;DHT22;5844;51.496;6.788;2023-04-03T07:15:52;3.30;99.90
11577;DHT22;5844;51.496;6.788;2023-04-03T07:18:18;3.30;1.00
11577;DHT22;5844;51.496;6.788;2023-04-03T07:20:43;3.40;1.00
11577;DHT22;5844;51.496;6.788;2023-04-03T07:23:09;3.70;1.00
11577;DHT22;5844;51.496;6.788;2023-04-03T07:25:36;4.70;1.00
11577;DHT22;5844;51.496;6.788;2023-04-03T07:28:01;3.80;1.00
11577;DHT22;5844;51.496;6.788;2023-04-03T07:30:27;4.80;99.90
11577;DHT22;5844;51.496;6.788;2023-04-03T07:32:53;3.70;99.90
11577;DHT22;5844;51.496;6.788;2023-04-03T07:35:19;3.70;99.90
11577;DHT22;5844;51.496;6.788;2023-04-03T07:37:44;3.90;99.90
11577;DHT22;5844;51.496;6.788;2023-04-03T07:40:11;3.90;99.90
11577;DHT22;5844;51.496;6.788;2023-04-03T07:42:37;4.00;99.90
11577;DHT22;5844;51.496;6.788;2023-04-03T07:45:04;4.70;52.00
11577;DHT22;5844;51.496;6.788;2023-04-03T07:47:30;4.10;1.00
11577;DHT22;5844;51.496;6.788;2023-04-03T07:49:57;5.10;1.00
11577;DHT22;5844;51.496;6.788;2023-04-03T07:52:23;5.70;1.00
11577;DHT22;5844;51.496;6.788;2023-04-03T07:54:49;4.60;1.00
11577;DHT22;5844;51.496;6.788;2023-04-03T07:57:15;4.70;33.60
11577;DHT22;5844;51.496;6.788;2023-04-03T07:59:41;4.80;99.90
11577;DHT22;5844;51.496;6.788;2023-04-03T08:02:11;5.40;99.90
11577;DHT22;5844;51.496;6.788;2023-04-03T08:04:38;5.10;1.00
11577;DHT22;5844;51.496;6.788;2023-04-03T08:07:04;5.50;1.00
11577;DHT22;5844;51.496;6.788;2023-04-03T08:09:30;6.10;1.00
11577;DHT22;5844;51.496;6.788;2023-04-03T08:11:55;6.30;1.00
11577;DHT22;5844;51.496;6.788;2023-04-03T08:14:21;5.90;1.00
11577;DHT22;5844;51.496;6.788;2023-04-03T08:16:47;5.70;1.00
11577;DHT22;5844;51.496;6.788;2023-04-03T08:19:13;6.30;99.90
11577;DHT22;5844;51.496;6.788;2023-04-03T08:21:41;6.10;99.90
11577;DHT22;5844;51.496;6.788;2023-04-03T08:24:10;6.20;1.00
11577;DHT22;5844;51.496;6.788;2023-04-03T08:26:35;5.90;1.00
11577;DHT22;5844;51.496;6.788;2023-04-03T08:29:02;6.00;1.00
11577;DHT22;5844;51.496;6.788;2023-04-03T08:31:28;6.20;1.00
11577;DHT22;5844;51.496;6.788;2023-04-03T08:33:54;6.30;99.90
11577;DHT22;5844;51.496;6.788;2023-04-03T08:36:25;7.70;1.00
11577;DHT22;5844;51.496;6.788;2023-04-03T08:38:53;6.60;99.90
11577;DHT22;5844;51.496;6.788;2023-04-03T08:41:38;6.70;1.00
11577;DHT22;5844;51.496;6.788;2023-04-03T08:49:44;7.50;1.00
11577;DHT22;5844;51.496;6.788;2023-04-03T08:52:19;7.70;99.90
11577;DHT22;5844;51.496;6.788;2023-04-03T08:54:57;7.90;99.90
11577;DHT22;5844;51.496;6.788;2023-04-03T08:57:33;8.00;99.90
11577;DHT22;5844;51.496;6.788;2023-04-03T09:00:05;8.10;1.00
11577;DHT22;5844;51.496;6.788;2023-04-03T09:02:52;8.10;1.00
11577;DHT22;5844;51.496;6.788;2023-04-03T09:08:21;8.60;99.90
11577;DHT22;5844;51.496;6.788;2023-04-03T09:10:49;8.50;1.00
11577;DHT22;5844;51.496;6.788;2023-04-03T09:16:49;8.70;1.00
11577;DHT22;5844;51.496;6.788;2023-04-03T09:22:25;9.50;99.90
11577;DHT22;5844;51.496;6.788;2023-04-03T09:25:05;9.80;99.90
11577;DHT22;5844;51.496;6.788;2023-04-03T09:27:34;10.30;99.90
11577;DHT22;5844;51.496;6.788;2023-04-03T09:29:59;10.10;8.60
11577;DHT22;5844;51.496;6.788;2023-04-03T09:32:33;9.80;62.20
11577;DHT22;5844;51.496;6.788;2023-04-03T09:35:03;10.10;99.90
11577;DHT22;5844;51.496;6.788;2023-04-03T09:38:17;10.60;83.30
11577;DHT22;5844;51.496;6.788;2023-04-03T09:40:48;10.60;1.00
11577;DHT22;5844;51.496;6.788;2023-04-03T09:45:44;10.50;1.00
11577;DHT22;5844;51.496;6.788;2023-04-03T09:55:56;11.40;1.00
11577;DHT22;5844;51.496;6.788;2023-04-03T09:58:38;11.40;1.00
11577;DHT22;5844;51.496;6.788;2023-04-03T10:03:46;11.80;1.00
11577;DHT22;5844;51.496;6.788;2023-04-03T10:06:24;11.90;1.00
11577;DHT22;5844;51.496;6.788;2023-04-03T10:09:04;12.30;1.00
11577;DHT22;5844;51.496;6.788;2023-04-03T10:11:30;12.40;1.00
11577;DHT22;5844;51.496;6.788;2023-04-03T10:13:59;12.90;1.00
11577;DHT22;5844;51.496;6.788;2023-04-03T10:16:32;12.80;1.00
11577;DHT22;5844;51.496;6.788;2023-04-03T10:19:13;12.60;1.00
11577;DHT22;5844;51.496;6.788;2023-04-03T10:33:08;13.40;1.00
11577;DHT22;5844;51.496;6.788;2023-04-03T10:36:18;13.50;1.00
11577;DHT22;5844;51.496;6.788;2023-04-03T10:38:51;13.60;1.00
11577;DHT22;5844;51.496;6.788;2023-04-03T10:41:24;13.80;1.00
11577;DHT22;5844;51.496;6.788;2023-04-03T10:44:07;13.80;1.00
11577;DHT22;5844;51.496;6.788;2023-04-03T10:46:40;14.20;1.00
11577;DHT22;5844;51.496;6.788;2023-04-03T10:49:14;14.00;1.00
11577;DHT22;5844;51.496;6.788;2023-04-03T10:52:02;13.60;1.00
11577;DHT22;5844;51.496;6.788;2023-04-03T10:54:38;14.30;1.00
11577;DHT22;5844;51.496;6.788;2023-04-03T10:57:07;14.20;1.00
11577;DHT22;5844;51.496;6.788;2023-04-03T10:59:45;14.50;1.00
11577;DHT22;5844;51.496;6.788;2023-04-03T11:02:23;14.60;1.00
11577;DHT22;5844;51.496;6.788;2023-04-03T11:04:54;14.60;1.00
11577;DHT22;5844;51.496;6.788;2023-04-03T11:07:32;15.10;1.00
11577;DHT22;5844;51.496;6.788;2023-04-03T11:10:23;15.30;1.00
11577;DHT22;5844;51.496;6.788;2023-04-03T11:13:01;14.80;1.00
11577;DHT22;5844;51.496;6.788;2023-04-03T11:15:30;14.60;1.00
11577;DHT22;5844;51.496;6.788;2023-04-03T11:18:03;14.90;1.00
11577;DHT22;5844;51.496;6.788;2023-04-03T11:20:32;15.20;1.00
11577;DHT22;5844;51.496;6.788;2023-04-03T11:23:29;15.10;1.00
11577;DHT22;5844;51.496;6.788;2023-04-03T11:28:33;15.90;1.00
11577;DHT22;5844;51.496;6.788;2023-04-03T11:31:27;16.20;1.00
11577;DHT22;5844;51.496;6.788;2023-04-03T11:36:40;16.70;1.00
11577;DHT22;5844;51.496;6.788;2023-04-03T11:39:24;17.20;1.00
11577;DHT22;5844;51.496;6.788;2023-04-03T11:41:51;16.70;1.00
11577;DHT22;5844;51.496;6.788;2023-04-03T11:44:37;16.60;1.00
11577;DHT22;5844;51.496;6.788;2023-04-03T11:47:05;16.80;1.00
11577;DHT22;5844;51.496;6.788;2023-04-03T12:16:05;17.80;99.90
11577;DHT22;5844;51.496;6.788;2023-04-03T12:21:07;18.10;1.00
11577;DHT22;5844;51.496;6.788;2023-04-03T12:23:35;18.10;1.00
11577;DHT22;5844;51.496;6.788;2023-04-03T12:26:27;18.10;99.90
11577;DHT22;5844;51.496;6.788;2023-04-03T12:28:52;18.40;99.90
11577;DHT22;5844;51.496;6.788;2023-04-03T12:31:19;19.00;99.90
11577;DHT22;5844;51.496;6.788;2023-04-03T12:34:18;19.40;99.90
11577;DHT22;5844;51.496;6.788;2023-04-03T12:36:50;19.00;99.90
11577;DHT22;5844;51.496;6.788;2023-04-03T12:39:39;18.50;99.90
11577;DHT22;5844;51.496;6.788;2023-04-03T12:44:55;18.40;99.90
11577;DHT22;5844;51.496;6.788;2023-04-03T12:47:36;19.10;99.90
11577;DHT22;5844;51.496;6.788;2023-04-03T12:50:16;19.50;99.90
11577;DHT22;5844;51.496;6.788;2023-04-03T12:52:47;19.70;99.90
11577;DHT22;5844;51.496;6.788;2023-04-03T12:55:20;19.10;99.90
11577;DHT22;5844;51.496;6.788;2023-04-03T12:57:46;19.50;99.90
11577;DHT22;5844;51.496;6.788;2023-04-03T13:00:29;18.40;99.90
11577;DHT22;5844;51.496;6.788;2023-04-03T13:02:56;18.90;99.90
11577;DHT22;5844;51.496;6.788;2023-04-03T13:05:22;19.50;99.90
11577;DHT22;5844;51.496;6.788;2023-04-03T13:07:52;19.50;99.90
11577;DHT22;5844;51.496;6.788;2023-04-03T13:10:20;18.90;99.90
11577;DHT22;5844;51.496;6.788;2023-04-03T13:12:52;18.80;99.90
11577;DHT22;5844;51.496;6.788;2023-04-03T13:15:24;19.20;99.90
11577;DHT22;5844;51.496;6.788;2023-04-03T13:17:51;19.50;99.90
11577;DHT22;5844;51.496;6.788;2023-04-03T13:20:25;20.20;99.90
11577;DHT22;5844;51.496;6.788;2023-04-03T13:25:24;20.50;99.90
11577;DHT22;5844;51.496;6.788;2023-04-03T13:27:51;20.20;99.90
11577;DHT22;5844;51.496;6.788;2023-04-03T13:30:35;19.30;99.90
11577;DHT22;5844;51.496;6.788;2023-04-03T13:33:05;20.10;99.90
11577;DHT22;5844;51.496;6.788;2023-04-03T13:35:40;20.50;99.90
11577;DHT22;5844;51.496;6.788;2023-04-03T13:41:20;21.30;99.90
11577;DHT22;5844;51.496;6.788;2023-04-03T13:43:46;20.50;99.90
11577;DHT22;5844;51.496;6.788;2023-04-03T13:48:43;20.80;99.90
11577;DHT22;5844;51.496;6.788;2023-04-03T13:56:34;20.90;99.90
11577;DHT22;5844;51.496;6.788;2023-04-03T14:01:54;20.10;99.90
11577;DHT22;5844;51.496;6.788;2023-04-03T14:04:25;20.50;99.90
11577;DHT22;5844;51.496;6.788;2023-04-03T14:06:51;20.70;99.90
11577;DHT22;5844;51.496;6.788;2023-04-03T14:09:19;20.90;99.90
11577;DHT22;5844;51.496;6.788;2023-04-03T14:11:47;21.20;99.90
11577;DHT22;5844;51.496;6.788;2023-04-03T14:14:20;21.30;99.90
11577;DHT22;5844;51.496;6.788;2023-04-03T14:16:50;21.30;99.90
11577;DHT22;5844;51.496;6.788;2023-04-03T14:19:21;21.40;99.90
11577;DHT22;5844;51.496;6.788;2023-04-03T14:21:47;21.80;99.90
11577;DHT22;5844;51.496;6.788;2023-04-03T14:24:13;21.40;99.90
11577;DHT22;5844;51.496;6.788;2023-04-03T14:26:39;20.80;99.90
11577;DHT22;5844;51.496;6.788;2023-04-03T14:29:05;20.80;99.90
11577;DHT22;5844;51.496;6.788;2023-04-03T14:31:31;21.20;99.90
11577;DHT22;5844;51.496;6.788;2023-04-03T14:33:57;20.70;99.90
11577;DHT22;5844;51.496;6.788;2023-04-03T14:36:27;21.10;99.90
11577;DHT22;5844;51.496;6.788;2023-04-03T14:38:54;21.50;99.90
11577;DHT22;5844;51.496;6.788;2023-04-03T14:41:23;21.80;99.90
11577;DHT22;5844;51.496;6.788;2023-04-03T14:43:49;22.20;99.90
11577;DHT22;5844;51.496;6.788;2023-04-03T14:46:43;21.20;99.90
11577;DHT22;5844;51.496;6.788;2023-04-03T14:49:15;21.10;99.90
11577;DHT22;5844;51.496;6.788;2023-04-03T14:51:43;20.70;99.90
11577;DHT22;5844;51.496;6.788;2023-04-03T14:54:19;20.80;99.90
11577;DHT22;5844;51.496;6.788;2023-04-03T14:56:47;21.10;99.90
11577;DHT22;5844;51.496;6.788;2023-04-03T14:59:13;20.80;99.90
11577;DHT22;5844;51.496;6.788;2023-04-03T15:01:40;21.00;99.90
11577;DHT22;5844;51.496;6.788;2023-04-03T15:04:23;21.70;99.90
11577;DHT22;5844;51.496;6.788;2023-04-03T15:06:51;20.80;99.90
11577;DHT22;5844;51.496;6.788;2023-04-03T15:09:25;20.30;99.90
11577;DHT22;5844;51.496;6.788;2023-04-03T15:11:53;20.60;99.90
11577;DHT22;5844;51.496;6.788;2023-04-03T15:14:19;19.90;99.90
11577;DHT22;5844;51.496;6.788;2023-04-03T15:16:45;20.00;99.90
11577;DHT22;5844;51.496;6.788;2023-04-03T15:19:12;20.20;99.90
11577;DHT22;5844;51.496;6.788;2023-04-03T15:21:38;20.30;99.90
11577;DHT22;5844;51.496;6.788;2023-04-03T15:24:04;19.60;99.90
11577;DHT22;5844;51.496;6.788;2023-04-03T15:26:30;19.40;99.90
11577;DHT22;5844;51.496;6.788;2023-04-03T15:28:57;20.00;99.90
11577;DHT22;5844;51.496;6.788;2023-04-03T15:31:22;20.60;99.90
11577;DHT22;5844;51.496;6.788;2023-04-03T15:33:48;20.50;99.90
11577;DHT22;5844;51.496;6.788;2023-04-03T15:36:13;20.10;99.90
11577;DHT22;5844;51.496;6.788;2023-04-03T15:38:39;20.00;99.90
11577;DHT22;5844;51.496;6.788;2023-04-03T15:41:05;20.00;99.90
11577;DHT22;5844;51.496;6.788;2023-04-03T15:43:31;20.70;99.90
11577;DHT22;5844;51.496;6.788;2023-04-03T15:45:59;20.50;99.90
11577;DHT22;5844;51.496;6.788;2023-04-03T15:48:26;20.90;99.90
11577;DHT22;5844;51.496;6.788;2023-04-03T15:50:52;20.50;99.90
11577;DHT22;5844;51.496;6.788;2023-04-03T15:53:18;20.30;99.90
11577;DHT22;5844;51.496;6.788;2023-04-03T15:55:44;20.40;99.90
11577;DHT22;5844;51.496;6.788;2023-04-03T15:58:09;19.20;99.90
11577;DHT22;5844;51.496;6.788;2023-04-03T16:00:36;18.30;99.90
11577;DHT22;5844;51.496;6.788;2023-04-03T16:03:09;18.70;99.90
11577;DHT22;5844;51.496;6.788;2023-04-03T16:05:37;18.20;99.90
11577;DHT22;5844;51.496;6.788;2023-04-03T16:08:03;18.80;99.90
11577;DHT22;5844;51.496;6.788;2023-04-03T16:10:31;18.80;99.90
11577;DHT22;5844;51.496;6.788;2023-04-03T16:12:57;18.30;99.90
11577;DHT22;5844;51.496;6.788;2023-04-03T16:15:23;17.90;99.90
11577;DHT22;5844;51.496;6.788;2023-04-03T16:17:50;17.20;1.00
11577;DHT22;5844;51.496;6.788;2023-04-03T16:20:16;16.40;99.90
11577;DHT22;5844;51.496;6.788;2023-04-03T16:22:42;15.30;99.90
11577;DHT22;5844;51.496;6.788;2023-04-03T16:25:09;14.60;99.90
11577;DHT22;5844;51.496;6.788;2023-04-03T16:27:35;14.60;99.90
11577;DHT22;5844;51.496;6.788;2023-04-03T16:30:00;15.60;99.90
11577;DHT22;5844;51.496;6.788;2023-04-03T16:32:28;15.80;99.90
11577;DHT22;5844;51.496;6.788;2023-04-03T16:34:54;16.00;99.90
11577;DHT22;5844;51.496;6.788;2023-04-03T16:37:20;15.60;99.90
11577;DHT22;5844;51.496;6.788;2023-04-03T16:39:46;15.50;99.90
11577;DHT22;5844;51.496;6.788;2023-04-03T16:42:11;15.70;99.90
11577;DHT22;5844;51.496;6.788;2023-04-03T16:44:37;15.10;99.90
11577;DHT22;5844;51.496;6.788;2023-04-03T16:47:05;14.50;99.90
11577;DHT22;5844;51.496;6.788;2023-04-03T16:49:31;13.70;99.90
11577;DHT22;5844;51.496;6.788;2023-04-03T16:52:03;12.90;99.90
11577;DHT22;5844;51.496;6.788;2023-04-03T16:54:30;11.90;99.90
11577;DHT22;5844;51.496;6.788;2023-04-03T16:56:55;11.30;99.90
11577;DHT22;5844;51.496;6.788;2023-04-03T16:59:21;10.80;99.90
11577;DHT22;5844;51.496;6.788;2023-04-03T17:01:47;10.50;99.90
11577;DHT22;5844;51.496;6.788;2023-04-03T17:04:13;10.20;1.00
11577;DHT22;5844;51.496;6.788;2023-04-03T17:06:39;10.10;1.00
11577;DHT22;5844;51.496;6.788;2023-04-03T17:09:05;9.80;99.90
11577;DHT22;5844;51.496;6.788;2023-04-03T17:11:31;9.70;1.00
11577;DHT22;5844;51.496;6.788;2023-04-03T17:13:58;9.60;1.00
11577;DHT22;5844;51.496;6.788;2023-04-03T17:16:24;9.50;1.00
11577;DHT22;5844;51.496;6.788;2023-04-03T17:18:50;9.40;99.90
11577;DHT22;5844;51.496;6.788;2023-04-03T17:21:17;9.20;99.90
11577;DHT22;5844;51.496;6.788;2023-04-03T17:23:45;9.40;1.00
11577;DHT22;5844;51.496;6.788;2023-04-03T17:26:12;9.10;1.00
11577;DHT22;5844;51.496;6.788;2023-04-03T17:28:37;9.10;99.90
11577;DHT22;5844;51.496;6.788;2023-04-03T17:31:05;8.90;99.90
11577;DHT22;5844;51.496;6.788;2023-04-03T17:33:32;8.70;99.90
11577;DHT22;5844;51.496;6.788;2023-04-03T17:35:59;8.60;99.90
11577;DHT22;5844;51.496;6.788;2023-04-03T17:38:28;8.60;99.90
11577;DHT22;5844;51.496;6.788;2023-04-03T17:40:58;8.50;99.90
11577;DHT22;5844;51.496;6.788;2023-04-03T17:43:24;8.50;99.90
11577;DHT22;5844;51.496;6.788;2023-04-03T17:45:50;8.50;99.90
11577;DHT22;5844;51.496;6.788;2023-04-03T17:48:16;8.40;99.90
11577;DHT22;5844;51.496;6.788;2023-04-03T17:50:42;8.30;99.90
11577;DHT22;5844;51.496;6.788;2023-04-03T17:53:07;8.30;1.00